Latest Weather Observations for Wyndham Airport

IDW60801

Issued at 4:33 pm WST Thursday 28 July 2016 (issued every 30 minutes, with the page automatically refreshed every 10 minutes)

About weather observations | Map of weather stations | Latest weather observations for WA | Other Formats
Station Details ID: 001006 Name: WYNDHAM AERO Lat: -15.51 Lon: 128.15 Height: 3.8 m
Data from the previous 72 hours. | See also: Recent months at Wyndham Airport
Date/Time
WST
Temp
°C
App
Temp
°C
Dew
Point
°C
Rel
Hum
%
Delta-T
°C
Wind Press
QNH
hPa
Press
MSL
hPa
Rain since
9am
mm
Dir  Spd
km/h
Gust
km/h
Spd
kts
Gust
kts
28/04:30pm 28.7 23.0 0.4 16 13.5 SE 20 28 11 15 1014.2 1014.2 0.0
28/04:00pm 29.3 22.9 0.9 16 13.7 SE 24 32 13 17 1014.0 1014.0 0.0
28/03:30pm 29.8 23.5 1.3 16 13.9 SE 24 35 13 19 1013.9 1013.9 0.0
28/03:00pm 30.1 24.4 0.6 15 14.2 SE 20 30 11 16 1013.8 1013.8 0.0
28/02:30pm 30.6 25.5 1.0 15 14.4 SE 17 24 9 13 1013.9 1013.9 0.0
28/02:00pm 30.4 25.6 -0.1 14 14.6 SE 15 30 8 16 1014.1 1014.1 0.0
28/01:30pm 30.6 24.7 -0.9 13 14.9 SE 20 32 11 17 1014.4 1014.4 0.0
28/01:00pm 29.6 23.6 -1.7 13 14.4 SE 20 32 11 17 1014.9 1014.9 0.0
28/12:30pm 28.8 22.3 -2.3 13 14.1 SE 22 32 12 17 1015.6 1015.6 0.0
28/12:00pm 29.1 23.0 -2.1 13 14.2 SSE 20 30 11 16 1016.0 1016.0 0.0
28/11:30am 29.4 23.4 -1.9 13 14.4 SSE 20 28 11 15 1016.6 1016.6 0.0
28/11:00am 28.5 22.4 -2.6 13 14.0 SE 20 33 11 18 1017.4 1017.4 0.0
28/10:30am 27.9 21.3 -3.0 13 13.8 ESE 22 35 12 19 1017.9 1017.9 0.0
28/10:00am 27.2 20.6 -3.6 13 13.5 ESE 22 35 12 19 1018.5 1018.5 0.0
28/09:30am 26.9 19.1 -3.8 13 13.4 ESE 28 35 15 19 1018.8 1018.8 0.0
28/09:00am 25.8 18.4 -3.7 14 12.7 ESE 26 37 14 20 1019.2 1019.2 0.0
28/08:30am 25.3 16.7 -4.1 14 12.6 ESE 32 41 17 22 1019.3 1019.3 0.0
28/08:00am 24.7 16.2 -3.6 15 12.1 ESE 32 39 17 21 1019.4 1019.4 0.0
28/07:30am 24.0 17.0 -3.3 16 11.7 ESE 24 33 13 18 1019.2 1019.2 0.0
28/07:00am 23.0 17.4 -3.3 17 11.1 ESE 17 20 9 11 1019.0 1019.0 0.0
28/06:30am 21.2 16.3 -3.3 19 10.2 SE 13 19 7 10 1018.6 1018.6 0.0
28/06:00am 21.4 14.8 -3.1 19 10.3 ESE 22 28 12 15 1018.2 1018.2 0.0
28/05:30am 21.9 14.1 -3.5 18 10.6 ESE 28 35 15 19 1017.6 1017.6 0.0
28/05:00am 22.3 14.5 -3.9 17 10.9 ESE 28 35 15 19 1017.1 1017.1 0.0
28/04:30am 22.5 15.1 -3.7 17 11.0 ESE 26 33 14 18 1016.8 1016.8 0.0
28/04:00am 22.4 15.4 -3.1 18 10.8 ESE 24 32 13 17 1016.9 1016.9 0.0
28/03:30am 22.3 15.4 -2.4 19 10.6 ESE 24 30 13 16 1016.7 1016.7 0.0
28/03:00am 22.3 16.3 -1.7 20 10.4 ESE 20 32 11 17 1016.6 1016.6 0.0
28/02:30am 21.8 16.1 -0.8 22 10.0 ESE 19 24 10 13 1016.6 1016.6 0.0
28/02:00am 22.4 16.7 0.3 23 10.0 ESE 20 24 11 13 1016.6 1016.6 0.0
28/01:30am 23.0 17.6 1.4 24 10.0 ESE 19 24 10 13 1016.6 1016.6 0.0
28/01:00am 22.6 17.7 2.1 26 9.6 ESE 17 20 9 11 1016.7 1016.7 0.0
28/12:30am 23.0 18.2 2.5 26 9.7 ESE 17 22 9 12 1016.5 1016.5 0.0
28/12:00am 24.1 19.0 2.9 25 10.2 ESE 19 24 10 13 1016.5 1016.5 0.0
 
Date/Time
WST
Temp
°C
App
Temp
°C
Dew
Point
°C
Rel
Hum
%
Delta-T
°C
Wind Press
QNH
hPa
Press
MSL
hPa
Rain since
9am
mm
Dir  Spd
km/h
Gust
km/h
Spd
kts
Gust
kts
27/11:30pm 24.3 19.2 3.0 25 10.3 ESE 19 24 10 13 1016.6 1016.6 0.0
27/11:00pm 24.6 19.6 3.8 26 10.2 ESE 19 22 10 12 1016.4 1016.4 0.0
27/10:30pm 25.8 19.1 3.7 24 10.9 ESE 28 35 15 19 1016.3 1016.3 0.0
27/10:00pm 23.4 19.4 4.9 30 9.2 SE 15 20 8 11 1016.1 1016.1 0.0
27/09:30pm 23.4 19.8 4.9 30 9.2 SSE 13 13 7 7 1016.1 1016.1 0.0
27/09:00pm 24.5 21.2 4.8 28 9.9 SE 11 13 6 7 1015.9 1015.9 0.0
27/08:30pm 24.3 21.3 4.1 27 10.0 ESE 9 11 5 6 1015.7 1015.7 0.0
27/08:00pm 24.6 21.9 3.8 26 10.2 E 7 9 4 5 1015.6 1015.6 0.0
27/07:30pm 24.6 21.9 3.8 26 10.2 E 7 9 4 5 1015.3 1015.3 0.0
27/07:00pm 24.1 20.6 3.4 26 10.1 E 11 11 6 6 1015.0 1015.0 0.0
27/06:30pm 24.6 20.2 2.7 24 10.6 SE 15 17 8 9 1014.6 1014.6 0.0
27/06:00pm 25.6 21.2 2.9 23 11.1 ESE 15 17 8 9 1014.4 1014.4 0.0
27/05:30pm 28.5 23.8 3.4 20 12.6 SE 17 24 9 13 1014.1 1014.1 0.0
27/05:00pm 29.8 24.8 4.4 20 13.1 SE 20 26 11 14 1013.8 1013.8 0.0
27/04:30pm 31.0 25.0 3.1 17 14.1 ESE 24 30 13 16 1013.5 1013.5 0.0
27/04:00pm 31.4 25.0 3.4 17 14.3 SE 26 37 14 20 1013.3 1013.3 0.0
27/03:30pm 32.0 25.3 3.9 17 14.5 E 28 37 15 20 1013.2 1013.2 0.0
27/03:00pm 32.0 25.6 3.1 16 14.7 ESE 26 37 14 20 1013.2 1013.2 0.0
27/02:30pm 32.3 26.7 3.3 16 14.9 E 22 33 12 18 1013.1 1013.1 0.0
27/02:00pm 32.5 25.8 3.5 16 14.9 ESE 28 39 15 21 1013.2 1013.2 0.0
27/01:30pm 32.3 25.5 3.3 16 14.9 ESE 28 43 15 23 1013.5 1013.5 0.0
27/01:00pm 31.9 25.6 3.8 17 14.5 ESE 26 41 14 22 1013.8 1013.8 0.0
27/12:30pm 31.5 24.4 3.5 17 14.3 ESE 30 44 16 24 1014.2 1014.2 0.0
27/12:00pm 31.2 25.0 4.1 18 14.0 ESE 26 41 14 22 1014.8 1014.8 0.0
27/11:30am 31.0 24.3 3.9 18 13.9 ESE 28 41 15 22 1015.4 1015.4 0.0
27/11:00am 30.8 24.3 4.5 19 13.6 ESE 28 37 15 20 1015.9 1015.9 0.0
27/10:30am 30.1 23.2 4.7 20 13.2 E 30 41 16 22 1016.5 1016.5 0.0
27/10:00am 29.5 22.1 4.2 20 12.9 E 32 44 17 24 1016.8 1016.8 0.0
27/09:30am 28.8 20.9 4.3 21 12.5 ESE 35 44 19 24 1017.1 1017.1 0.0
27/09:00am 28.2 20.3 4.5 22 12.1 E 35 43 19 23 1017.2 1017.2 0.0
27/08:30am 27.5 19.1 3.9 22 11.9 E 37 46 20 25 1017.0 1017.0 0.0
27/08:00am 27.4 19.5 4.5 23 11.6 E 35 44 19 24 1017.0 1017.0 0.0
27/07:30am 26.5 19.2 4.3 24 11.2 ESE 32 39 17 21 1016.9 1016.9 0.0
27/07:25am 26.1 18.8 4.6 25 10.8 ESE 32 39 17 21 1016.8 1016.8 0.0
27/07:00am 24.1 19.7 5.0 29 9.6 ESE 17 20 9 11 1016.5 1016.5 0.0
27/06:30am 23.3 18.9 4.8 30 9.2 ESE 17 20 9 11 1016.1 1016.1 0.0
27/06:00am 22.6 17.8 4.6 31 8.9 E 19 20 10 11 1015.7 1015.7 0.0
27/05:30am 23.0 18.3 5.0 31 9.0 E 19 20 10 11 1015.3 1015.3 0.0
27/05:00am 23.4 18.5 4.9 30 9.2 E 20 22 11 12 1014.9 1014.9 0.0
27/04:30am 23.6 18.4 5.5 31 9.1 E 22 24 12 13 1014.6 1014.6 0.0
27/04:00am 20.8 17.5 8.1 44 6.6 E 15 20 8 11 1014.5 1014.5 0.0
27/03:30am 19.0 17.6 10.8 59 4.4 ESE 9 9 5 5 1014.3 1014.3 0.0
27/03:00am 19.2 17.7 12.0 63 4.0 E 11 13 6 7 1014.0 1014.0 0.0
27/02:30am 17.6 15.8 10.9 65 3.6 ESE 11 13 6 7 1013.8 1013.8 0.0
27/02:00am 18.4 18.4 11.0 62 4.0 ESE 2 9 1 5 1013.7 1013.7 0.0
27/01:30am 19.0 19.0 9.8 55 4.9 CALM 0 0 0 0 1013.7 1013.7 0.0
27/01:00am 21.0 21.0 13.7 63 4.2 NE 6 7 3 4 1013.7 1013.7 0.0
27/12:30am 21.0 20.9 12.2 57 4.9 ENE 4 7 2 4 1013.7 1013.7 0.0
27/12:00am 22.6 21.1 13.1 55 5.5 ESE 13 17 7 9 1013.9 1013.9 0.0
 
Date/Time
WST
Temp
°C
App
Temp
°C
Dew
Point
°C
Rel
Hum
%
Delta-T
°C
Wind Press
QNH
hPa
Press
MSL
hPa
Rain since
9am
mm
Dir  Spd
km/h
Gust
km/h
Spd
kts
Gust
kts
26/11:30pm 22.2 20.3 13.0 56 5.3 SE 15 17 8 9 1013.8 1013.8 0.0
26/11:00pm 21.1 19.0 11.2 53 5.5 ESE 13 17 7 9 1013.7 1013.7 0.0
26/10:30pm 21.8 20.5 11.2 51 5.9 SE 9 13 5 7 1013.6 1013.6 0.0
26/10:00pm 21.9 19.5 10.1 47 6.4 ESE 13 15 7 8 1013.5 1013.5 0.0
26/09:30pm 22.9 21.2 10.0 44 7.0 E 9 13 5 7 1013.6 1013.6 0.0
26/09:00pm 23.9 24.2 10.9 44 7.2 CALM 0 0 0 0 1013.6 1013.6 0.0
26/08:30pm 24.6 23.0 8.1 35 8.8 NE 6 11 3 6 1013.6 1013.6 0.0
26/08:00pm 24.4 21.6 7.1 33 9.0 ESE 11 11 6 6 1013.4 1013.4 0.0
26/07:30pm 25.9 23.6 7.5 31 9.8 ESE 9 13 5 7 1013.3 1013.3 0.0
26/07:00pm 27.8 25.3 8.1 29 10.7 E 11 17 6 9 1013.0 1013.0 0.0
26/06:30pm 28.9 24.6 5.1 22 12.3 ESE 17 26 9 14 1012.6 1012.6 0.0
26/06:00pm 31.1 25.5 5.5 20 13.5 SSE 24 32 13 17 1012.0 1012.0 0.0
26/05:30pm 31.3 26.0 4.9 19 13.8 SE 22 30 12 16 1011.5 1011.5 0.0
26/05:00pm 32.1 27.7 4.8 18 14.3 SE 17 22 9 12 1011.0 1011.0 0.0
26/04:30pm 33.4 29.2 5.9 18 14.8 ESE 17 28 9 15 1010.5 1010.5 0.0
26/04:00pm 34.2 30.0 5.7 17 15.4 E 17 28 9 15 1010.3 1010.3 0.0
26/03:30pm 34.8 30.9 5.3 16 15.8 ESE 15 20 8 11 1010.3 1010.3 0.0
26/03:00pm 35.1 31.2 5.5 16 16.0 ENE 15 20 8 11 1010.4 1010.4 0.0
26/02:30pm 35.1 30.9 5.5 16 16.0 ESE 17 26 9 14 1010.5 1010.5 0.0
26/02:00pm 34.6 31.6 6.0 17 15.5 E 11 28 6 15 1010.6 1010.6 0.0
26/01:30pm 33.9 31.1 7.0 19 14.8 E 11 33 6 18 1010.9 1010.9 0.0
26/01:00pm 34.3 31.2 7.4 19 14.9 ENE 13 22 7 12 1011.5 1011.5 0.0
26/12:30pm 33.5 30.5 7.5 20 14.4 E 13 20 7 11 1011.8 1011.8 0.0
26/12:00pm 33.5 30.0 8.9 22 13.9 ESE 17 26 9 14 1012.5 1012.5 0.0
26/11:30am 33.1 29.7 9.2 23 13.5 E 17 26 9 14 1012.9 1012.9 0.0
26/11:00am 32.7 29.2 8.9 23 13.4 E 17 28 9 15 1013.6 1013.6 0.0
26/10:30am 32.9 29.1 9.7 24 13.2 ESE 20 35 11 19 1013.9 1013.9 0.0
26/10:00am 31.6 26.7 8.6 24 12.8 ESE 24 32 13 17 1014.2 1014.2 0.0
26/09:30am 31.2 25.5 8.2 24 12.7 E 28 35 15 19 1014.6 1014.6 0.0
26/09:00am 30.5 24.6 7.7 24 12.4 ESE 28 35 15 19 1014.9 1014.9 0.0
26/08:30am 29.9 24.3 7.2 24 12.2 ESE 26 33 14 18 1014.9 1014.9 0.0
26/08:00am 29.1 24.1 6.5 24 12.0 ESE 22 30 12 16 1015.0 1015.0 0.0
26/07:30am 28.2 24.6 6.9 26 11.3 ESE 15 22 8 12 1014.7 1014.7 0.0
26/07:00am 26.2 23.0 6.8 29 10.2 ESE 13 17 7 9 1014.6 1014.6 0.0
26/06:30am 24.2 20.3 6.9 33 9.0 E 17 19 9 10 1014.4 1014.4 0.0
26/06:00am 22.3 18.3 6.5 36 8.0 E 17 19 9 10 1014.0 1014.0 0.0
26/05:30am 22.9 18.9 6.6 35 8.4 E 17 19 9 10 1013.8 1013.8 0.0
26/05:00am 22.8 18.8 6.6 35 8.3 E 17 19 9 10 1013.3 1013.3 0.0
26/04:30am 23.1 19.7 7.6 37 8.1 ENE 15 17 8 9 1013.2 1013.2 0.0
26/04:00am 18.5 15.9 9.3 55 4.8 E 13 17 7 9 1013.1 1013.1 0.0
26/03:30am 19.6 17.0 9.5 52 5.4 E 13 15 7 8 1012.9 1012.9 0.0
26/03:00am 18.7 17.7 10.3 58 4.5 SE 6 7 3 4 1012.8 1012.8 0.0
26/02:30am 17.8 16.1 8.4 54 4.8 S 7 9 4 5 1012.7 1012.7 0.0
26/02:00am 19.0 18.7 8.6 51 5.4 CALM 0 6 0 3 1012.7 1012.7 0.0
26/01:30am 20.5 18.6 10.6 53 5.4 E 11 15 6 8 1012.8 1012.8 0.0
26/01:00am 19.5 17.7 11.0 58 4.6 E 11 13 6 7 1012.8 1012.8 0.0
26/12:30am 18.4 17.6 9.7 57 4.6 E 4 9 2 5 1012.7 1012.7 0.0
26/12:00am 19.4 19.6 10.7 57 4.7 CALM 0 0 0 0 1012.8 1012.8 0.0
 
Date/Time
WST
Temp
°C
App
Temp
°C
Dew
Point
°C
Rel
Hum
%
Delta-T
°C
Wind Press
QNH
hPa
Press
MSL
hPa
Rain since
9am
mm
Dir  Spd
km/h
Gust
km/h
Spd
kts
Gust
kts
25/11:30pm 19.4 19.5 10.1 55 5.0 CALM 0 0 0 0 1012.9 1012.9 0.0
25/11:00pm 20.0 19.8 10.4 54 5.2 E 2 7 1 4 1012.9 1012.9 0.0
25/10:30pm 21.0 19.9 10.5 51 5.7 ESE 7 9 4 5 1012.9 1012.9 0.0
25/10:00pm 22.3 22.0 13.4 57 5.1 E 7 9 4 5 1013.0 1013.0 0.0
25/09:30pm 21.8 21.6 11.8 53 5.6 ENE 4 7 2 4 1013.0 1013.0 0.0
25/09:00pm 21.5 20.2 9.1 45 6.6 SSE 6 7 3 4 1012.9 1012.9 0.0
25/08:30pm 24.1 22.8 12.4 48 6.7 SSW 11 13 6 7 1012.8 1012.8 0.0
25/08:00pm 24.6 24.0 12.2 46 7.1 S 7 11 4 6 1012.6 1012.6 0.0
25/07:30pm 25.8 27.1 14.0 48 7.0 CALM 0 0 0 0 1012.4 1012.4 0.0
25/07:00pm 26.6 26.3 12.6 42 8.1 W 6 9 3 5 1012.1 1012.1 0.0
25/06:30pm 29.2 28.1 13.0 37 9.6 W 11 15 6 8 1011.7 1011.7 0.0
25/06:00pm 28.9 28.2 11.9 35 9.9 NW 7 9 4 5 1011.2 1011.2 0.0
25/05:30pm 30.4 28.7 12.3 33 10.6 N 13 20 7 11 1010.9 1010.9 0.0
25/05:00pm 32.8 28.7 6.2 19 14.3 E 17 20 9 11 1010.6 1010.6 0.0

Other Formats:

Comma delimited format used in spreadsheet applications
http://www.bom.gov.au/fwo/IDW60801/IDW60801.95214.axf

JavaScript Object Notation format (JSON) in row-major order
http://www.bom.gov.au/fwo/IDW60801/IDW60801.95214.json